sensor_id;sensor_type;location;lat;lon;timestamp;temperature;humidity
71175;DHT22;58876;51.994;4.472;2023-08-07T00:00:05;15.62;74.14
71175;DHT22;58876;51.994;4.472;2023-08-07T00:02:34;15.67;73.93
71175;DHT22;58876;51.994;4.472;2023-08-07T00:05:00;15.71;74.25
71175;DHT22;58876;51.994;4.472;2023-08-07T00:07:25;15.74;74.40
71175;DHT22;58876;51.994;4.472;2023-08-07T00:09:51;15.55;76.46
71175;DHT22;58876;51.994;4.472;2023-08-07T00:12:16;15.11;78.61
71175;DHT22;58876;51.994;4.472;2023-08-07T00:14:42;14.91;79.59
71175;DHT22;58876;51.994;4.472;2023-08-07T00:20:42;14.51;79.09
71175;DHT22;58876;51.994;4.472;2023-08-07T00:23:08;14.48;78.87
71175;DHT22;58876;51.994;4.472;2023-08-07T00:25:46;14.47;78.06
71175;DHT22;58876;51.994;4.472;2023-08-07T00:28:11;14.48;78.79
71175;DHT22;58876;51.994;4.472;2023-08-07T00:30:37;14.54;80.02
71175;DHT22;58876;51.994;4.472;2023-08-07T00:33:31;14.53;81.46
71175;DHT22;58876;51.994;4.472;2023-08-07T00:36:40;14.60;81.68
71175;DHT22;58876;51.994;4.472;2023-08-07T00:43:08;14.77;81.03
71175;DHT22;58876;51.994;4.472;2023-08-07T00:45:39;14.85;79.81
71175;DHT22;58876;51.994;4.472;2023-08-07T00:48:18;14.99;78.75
71175;DHT22;58876;51.994;4.472;2023-08-07T00:50:52;15.12;77.77
71175;DHT22;58876;51.994;4.472;2023-08-07T00:53:21;15.22;77.19
71175;DHT22;58876;51.994;4.472;2023-08-07T00:55:55;15.25;76.29
71175;DHT22;58876;51.994;4.472;2023-08-07T00:58:31;15.29;76.02
71175;DHT22;58876;51.994;4.472;2023-08-07T01:00:59;15.29;76.59
71175;DHT22;58876;51.994;4.472;2023-08-07T01:03:25;15.33;75.57
71175;DHT22;58876;51.994;4.472;2023-08-07T01:05:50;15.45;74.95
71175;DHT22;58876;51.994;4.472;2023-08-07T01:08:16;15.39;74.55
71175;DHT22;58876;51.994;4.472;2023-08-07T01:13:42;15.50;72.65
71175;DHT22;58876;51.994;4.472;2023-08-07T01:16:18;15.59;72.93
71175;DHT22;58876;51.994;4.472;2023-08-07T01:18:46;15.59;72.57
71175;DHT22;58876;51.994;4.472;2023-08-07T01:21:19;15.66;72.20
71175;DHT22;58876;51.994;4.472;2023-08-07T01:23:46;15.63;71.98
71175;DHT22;58876;51.994;4.472;2023-08-07T01:26:13;15.74;72.41
71175;DHT22;58876;51.994;4.472;2023-08-07T01:28:46;15.76;72.51
71175;DHT22;58876;51.994;4.472;2023-08-07T01:31:20;15.76;71.70
71175;DHT22;58876;51.994;4.472;2023-08-07T01:33:59;15.71;71.64
71175;DHT22;58876;51.994;4.472;2023-08-07T01:36:28;15.79;71.22
71175;DHT22;58876;51.994;4.472;2023-08-07T01:38:57;15.83;71.88
71175;DHT22;58876;51.994;4.472;2023-08-07T01:41:24;15.82;71.73
71175;DHT22;58876;51.994;4.472;2023-08-07T01:43:49;15.84;71.34
71175;DHT22;58876;51.994;4.472;2023-08-07T01:46:18;15.76;71.56
71175;DHT22;58876;51.994;4.472;2023-08-07T01:48:43;15.70;72.13
71175;DHT22;58876;51.994;4.472;2023-08-07T01:51:09;15.76;70.31
71175;DHT22;58876;51.994;4.472;2023-08-07T01:53:35;15.82;69.98
71175;DHT22;58876;51.994;4.472;2023-08-07T01:56:00;15.86;69.73
71175;DHT22;58876;51.994;4.472;2023-08-07T01:58:26;15.97;70.54
71175;DHT22;58876;51.994;4.472;2023-08-07T02:00:51;15.96;72.11
71175;DHT22;58876;51.994;4.472;2023-08-07T02:03:17;15.83;71.45
71175;DHT22;58876;51.994;4.472;2023-08-07T02:05:45;15.84;71.71
71175;DHT22;58876;51.994;4.472;2023-08-07T02:08:11;15.83;71.25
71175;DHT22;58876;51.994;4.472;2023-08-07T02:10:37;15.87;69.94
71175;DHT22;58876;51.994;4.472;2023-08-07T02:13:02;15.90;68.99
71175;DHT22;58876;51.994;4.472;2023-08-07T02:15:27;15.98;68.99
71175;DHT22;58876;51.994;4.472;2023-08-07T02:17:53;16.00;69.19
71175;DHT22;58876;51.994;4.472;2023-08-07T02:20:19;15.91;69.08
71175;DHT22;58876;51.994;4.472;2023-08-07T02:22:44;15.93;68.89
71175;DHT22;58876;51.994;4.472;2023-08-07T02:25:10;15.93;68.78
71175;DHT22;58876;51.994;4.472;2023-08-07T02:27:35;15.93;69.12
71175;DHT22;58876;51.994;4.472;2023-08-07T02:30:01;15.91;69.29
71175;DHT22;58876;51.994;4.472;2023-08-07T02:32:28;15.97;69.75
71175;DHT22;58876;51.994;4.472;2023-08-07T02:34:54;16.01;69.89
71175;DHT22;58876;51.994;4.472;2023-08-07T02:37:19;15.97;70.30
71175;DHT22;58876;51.994;4.472;2023-08-07T02:39:46;15.97;70.73
71175;DHT22;58876;51.994;4.472;2023-08-07T02:42:11;15.90;71.29
71175;DHT22;58876;51.994;4.472;2023-08-07T02:44:37;15.79;72.03
71175;DHT22;58876;51.994;4.472;2023-08-07T02:47:03;15.83;72.54
71175;DHT22;58876;51.994;4.472;2023-08-07T02:49:28;15.80;71.99
71175;DHT22;58876;51.994;4.472;2023-08-07T02:51:54;15.83;72.84
71175;DHT22;58876;51.994;4.472;2023-08-07T02:54:19;15.73;76.21
71175;DHT22;58876;51.994;4.472;2023-08-07T02:56:45;15.21;78.09
71175;DHT22;58876;51.994;4.472;2023-08-07T02:59:10;15.02;79.40
71175;DHT22;58876;51.994;4.472;2023-08-07T03:01:36;14.84;80.23
71175;DHT22;58876;51.994;4.472;2023-08-07T03:04:01;14.77;80.68
71175;DHT22;58876;51.994;4.472;2023-08-07T03:06:27;14.80;80.63
71175;DHT22;58876;51.994;4.472;2023-08-07T03:08:52;14.84;80.96
71175;DHT22;58876;51.994;4.472;2023-08-07T03:11:17;14.94;80.96
71175;DHT22;58876;51.994;4.472;2023-08-07T03:13:43;14.84;81.26
71175;DHT22;58876;51.994;4.472;2023-08-07T03:16:09;14.74;81.80
71175;DHT22;58876;51.994;4.472;2023-08-07T03:18:35;14.73;81.54
71175;DHT22;58876;51.994;4.472;2023-08-07T03:21:02;14.65;81.49
71175;DHT22;58876;51.994;4.472;2023-08-07T03:23:28;14.65;81.26
71175;DHT22;58876;51.994;4.472;2023-08-07T03:26:08;14.65;81.24
71175;DHT22;58876;51.994;4.472;2023-08-07T03:28:35;14.71;81.01
71175;DHT22;58876;51.994;4.472;2023-08-07T03:31:01;14.80;81.01
71175;DHT22;58876;51.994;4.472;2023-08-07T03:33:27;14.81;80.95
71175;DHT22;58876;51.994;4.472;2023-08-07T03:35:52;14.84;80.71
71175;DHT22;58876;51.994;4.472;2023-08-07T03:38:18;14.89;80.56
71175;DHT22;58876;51.994;4.472;2023-08-07T03:40:44;14.80;80.74
71175;DHT22;58876;51.994;4.472;2023-08-07T03:43:09;14.81;79.92
71175;DHT22;58876;51.994;4.472;2023-08-07T03:45:35;14.78;79.63
71175;DHT22;58876;51.994;4.472;2023-08-07T03:48:01;14.77;79.59
71175;DHT22;58876;51.994;4.472;2023-08-07T03:50:26;14.89;79.33
71175;DHT22;58876;51.994;4.472;2023-08-07T03:52:52;14.99;79.18
71175;DHT22;58876;51.994;4.472;2023-08-07T03:55:18;14.98;79.26
71175;DHT22;58876;51.994;4.472;2023-08-07T03:57:44;15.02;79.12
71175;DHT22;58876;51.994;4.472;2023-08-07T04:00:10;15.05;78.93
71175;DHT22;58876;51.994;4.472;2023-08-07T04:02:35;15.14;78.52
71175;DHT22;58876;51.994;4.472;2023-08-07T04:05:01;15.25;77.84
71175;DHT22;58876;51.994;4.472;2023-08-07T04:07:26;15.33;77.91
71175;DHT22;58876;51.994;4.472;2023-08-07T04:09:52;15.49;77.18
71175;DHT22;58876;51.994;4.472;2023-08-07T04:12:17;15.57;76.71
71175;DHT22;58876;51.994;4.472;2023-08-07T04:14:43;15.67;76.09
71175;DHT22;58876;51.994;4.472;2023-08-07T04:17:09;15.69;75.70
71175;DHT22;58876;51.994;4.472;2023-08-07T04:19:34;15.69;75.01
71175;DHT22;58876;51.994;4.472;2023-08-07T04:22:00;15.79;73.70
71175;DHT22;58876;51.994;4.472;2023-08-07T04:24:25;15.83;73.26
71175;DHT22;58876;51.994;4.472;2023-08-07T04:26:51;15.76;72.81
71175;DHT22;58876;51.994;4.472;2023-08-07T04:29:16;15.77;72.21
71175;DHT22;58876;51.994;4.472;2023-08-07T04:31:42;15.83;71.87
71175;DHT22;58876;51.994;4.472;2023-08-07T04:34:07;15.91;71.69
71175;DHT22;58876;51.994;4.472;2023-08-07T04:36:34;15.91;70.76
71175;DHT22;58876;51.994;4.472;2023-08-07T04:38:59;15.86;70.95
71175;DHT22;58876;51.994;4.472;2023-08-07T04:41:25;15.91;70.66
71175;DHT22;58876;51.994;4.472;2023-08-07T04:43:50;15.89;70.33
71175;DHT22;58876;51.994;4.472;2023-08-07T04:46:16;15.84;69.85
71175;DHT22;58876;51.994;4.472;2023-08-07T04:48:41;15.96;70.22
71175;DHT22;58876;51.994;4.472;2023-08-07T04:51:09;15.91;69.98
71175;DHT22;58876;51.994;4.472;2023-08-07T04:53:35;15.89;70.13
71175;DHT22;58876;51.994;4.472;2023-08-07T04:56:00;15.79;70.55
71175;DHT22;58876;51.994;4.472;2023-08-07T04:58:26;15.93;70.39
71175;DHT22;58876;51.994;4.472;2023-08-07T05:00:55;15.93;70.01
71175;DHT22;58876;51.994;4.472;2023-08-07T05:03:21;15.93;70.17
71175;DHT22;58876;51.994;4.472;2023-08-07T05:05:46;15.97;69.75
71175;DHT22;58876;51.994;4.472;2023-08-07T05:08:12;15.93;69.55
71175;DHT22;58876;51.994;4.472;2023-08-07T05:10:37;15.86;69.35
71175;DHT22;58876;51.994;4.472;2023-08-07T05:13:03;15.86;69.55
71175;DHT22;58876;51.994;4.472;2023-08-07T05:15:28;15.87;69.46
71175;DHT22;58876;51.994;4.472;2023-08-07T05:17:56;15.91;69.76
71175;DHT22;58876;51.994;4.472;2023-08-07T05:20:21;15.90;69.84
71175;DHT22;58876;51.994;4.472;2023-08-07T05:22:47;15.93;69.38
71175;DHT22;58876;51.994;4.472;2023-08-07T05:25:13;16.00;69.15
71175;DHT22;58876;51.994;4.472;2023-08-07T05:27:45;16.04;69.06
71175;DHT22;58876;51.994;4.472;2023-08-07T05:30:12;16.17;69.43
71175;DHT22;58876;51.994;4.472;2023-08-07T05:32:38;16.14;69.35
71175;DHT22;58876;51.994;4.472;2023-08-07T05:35:05;16.13;69.20
71175;DHT22;58876;51.994;4.472;2023-08-07T05:37:30;16.18;69.43
71175;DHT22;58876;51.994;4.472;2023-08-07T05:39:57;16.21;69.64
71175;DHT22;58876;51.994;4.472;2023-08-07T05:42:23;16.17;69.86
71175;DHT22;58876;51.994;4.472;2023-08-07T05:44:48;16.17;70.33
71175;DHT22;58876;51.994;4.472;2023-08-07T05:47:14;16.18;70.28
71175;DHT22;58876;51.994;4.472;2023-08-07T05:49:39;16.21;70.56
71175;DHT22;58876;51.994;4.472;2023-08-07T05:52:05;16.25;70.26
71175;DHT22;58876;51.994;4.472;2023-08-07T05:54:31;16.24;69.99
71175;DHT22;58876;51.994;4.472;2023-08-07T05:56:57;16.34;70.06
71175;DHT22;58876;51.994;4.472;2023-08-07T05:59:22;16.38;69.91
71175;DHT22;58876;51.994;4.472;2023-08-07T06:01:48;16.47;69.61
71175;DHT22;58876;51.994;4.472;2023-08-07T06:04:13;16.52;69.72
71175;DHT22;58876;51.994;4.472;2023-08-07T06:06:39;16.59;69.72
71175;DHT22;58876;51.994;4.472;2023-08-07T06:09:06;16.40;69.39
71175;DHT22;58876;51.994;4.472;2023-08-07T06:11:32;16.35;69.67
71175;DHT22;58876;51.994;4.472;2023-08-07T06:13:58;16.28;69.83
71175;DHT22;58876;51.994;4.472;2023-08-07T06:16:24;16.18;69.93
71175;DHT22;58876;51.994;4.472;2023-08-07T06:18:49;16.15;69.93
71175;DHT22;58876;51.994;4.472;2023-08-07T06:21:15;16.25;69.85
71175;DHT22;58876;51.994;4.472;2023-08-07T06:23:41;16.38;69.60
71175;DHT22;58876;51.994;4.472;2023-08-07T06:26:07;16.51;69.29
71175;DHT22;58876;51.994;4.472;2023-08-07T06:28:34;16.48;68.81
71175;DHT22;58876;51.994;4.472;2023-08-07T06:31:07;16.45;67.16
71175;DHT22;58876;51.994;4.472;2023-08-07T06:33:32;16.42;66.66
71175;DHT22;58876;51.994;4.472;2023-08-07T06:35:59;16.52;66.84
71175;DHT22;58876;51.994;4.472;2023-08-07T06:38:25;16.61;66.45
71175;DHT22;58876;51.994;4.472;2023-08-07T06:40:51;16.73;66.15
71175;DHT22;58876;51.994;4.472;2023-08-07T06:43:17;16.79;66.72
71175;DHT22;58876;51.994;4.472;2023-08-07T06:45:42;17.11;66.83
71175;DHT22;58876;51.994;4.472;2023-08-07T06:48:08;17.17;65.70
71175;DHT22;58876;51.994;4.472;2023-08-07T06:50:33;17.21;65.52
71175;DHT22;58876;51.994;4.472;2023-08-07T06:52:59;17.28;64.59
71175;DHT22;58876;51.994;4.472;2023-08-07T06:55:25;17.54;64.56
71175;DHT22;58876;51.994;4.472;2023-08-07T06:57:51;17.35;64.88
71175;DHT22;58876;51.994;4.472;2023-08-07T07:00:17;17.19;65.46
71175;DHT22;58876;51.994;4.472;2023-08-07T07:02:42;17.16;65.06
71175;DHT22;58876;51.994;4.472;2023-08-07T07:05:08;17.14;65.19
71175;DHT22;58876;51.994;4.472;2023-08-07T07:07:33;17.23;64.59
71175;DHT22;58876;51.994;4.472;2023-08-07T07:09:59;17.23;63.34
71175;DHT22;58876;51.994;4.472;2023-08-07T07:12:26;17.19;61.05
71175;DHT22;58876;51.994;4.472;2023-08-07T07:14:52;17.24;60.37
71175;DHT22;58876;51.994;4.472;2023-08-07T07:17:18;17.47;59.74
71175;DHT22;58876;51.994;4.472;2023-08-07T07:19:43;17.75;60.40
71175;DHT22;58876;51.994;4.472;2023-08-07T07:22:09;17.50;61.20
71175;DHT22;58876;51.994;4.472;2023-08-07T07:24:34;17.10;60.57
71175;DHT22;58876;51.994;4.472;2023-08-07T07:27:00;17.31;62.41
71175;DHT22;58876;51.994;4.472;2023-08-07T07:29:25;17.61;63.02
71175;DHT22;58876;51.994;4.472;2023-08-07T07:31:51;18.01;61.79
71175;DHT22;58876;51.994;4.472;2023-08-07T07:34:16;17.52;60.87
71175;DHT22;58876;51.994;4.472;2023-08-07T07:36:42;17.28;61.84
71175;DHT22;58876;51.994;4.472;2023-08-07T07:39:07;17.17;62.34
71175;DHT22;58876;51.994;4.472;2023-08-07T07:41:35;17.13;62.40
71175;DHT22;58876;51.994;4.472;2023-08-07T07:44:00;17.54;61.82
71175;DHT22;58876;51.994;4.472;2023-08-07T07:46:28;18.16;60.27
71175;DHT22;58876;51.994;4.472;2023-08-07T07:48:53;18.61;59.57
71175;DHT22;58876;51.994;4.472;2023-08-07T07:51:19;19.09;57.65
71175;DHT22;58876;51.994;4.472;2023-08-07T07:53:45;18.71;58.00
71175;DHT22;58876;51.994;4.472;2023-08-07T07:56:10;18.92;57.49
71175;DHT22;58876;51.994;4.472;2023-08-07T07:58:36;18.84;57.34
71175;DHT22;58876;51.994;4.472;2023-08-07T08:01:01;19.18;56.93
71175;DHT22;58876;51.994;4.472;2023-08-07T08:03:27;19.50;56.52
71175;DHT22;58876;51.994;4.472;2023-08-07T08:05:53;19.25;54.91
71175;DHT22;58876;51.994;4.472;2023-08-07T08:08:18;18.22;56.54
71175;DHT22;58876;51.994;4.472;2023-08-07T08:10:45;17.88;58.63
71175;DHT22;58876;51.994;4.472;2023-08-07T08:13:15;18.37;56.18
71175;DHT22;58876;51.994;4.472;2023-08-07T08:15:41;18.72;55.92
71175;DHT22;58876;51.994;4.472;2023-08-07T08:18:07;18.78;54.99
71175;DHT22;58876;51.994;4.472;2023-08-07T08:20:32;19.36;54.76
71175;DHT22;58876;51.994;4.472;2023-08-07T08:22:58;20.01;52.31
71175;DHT22;58876;51.994;4.472;2023-08-07T08:25:24;20.56;51.59
71175;DHT22;58876;51.994;4.472;2023-08-07T08:27:50;19.46;54.10
71175;DHT22;58876;51.994;4.472;2023-08-07T08:30:16;19.71;53.17
71175;DHT22;58876;51.994;4.472;2023-08-07T08:32:43;20.20;52.62
71175;DHT22;58876;51.994;4.472;2023-08-07T08:35:08;20.47;51.66
71175;DHT22;58876;51.994;4.472;2023-08-07T08:37:35;20.01;50.88
71175;DHT22;58876;51.994;4.472;2023-08-07T08:40:01;20.08;50.05
71175;DHT22;58876;51.994;4.472;2023-08-07T08:42:27;20.35;49.33
71175;DHT22;58876;51.994;4.472;2023-08-07T08:44:54;20.56;48.61
71175;DHT22;58876;51.994;4.472;2023-08-07T08:47:22;20.34;50.38
71175;DHT22;58876;51.994;4.472;2023-08-07T08:49:51;20.69;50.16
71175;DHT22;58876;51.994;4.472;2023-08-07T08:52:20;20.86;49.42
71175;DHT22;58876;51.994;4.472;2023-08-07T08:54:47;20.69;48.80
71175;DHT22;58876;51.994;4.472;2023-08-07T08:57:13;19.77;49.89
71175;DHT22;58876;51.994;4.472;2023-08-07T08:59:42;19.04;52.54
71175;DHT22;58876;51.994;4.472;2023-08-07T09:02:08;19.76;52.39
71175;DHT22;58876;51.994;4.472;2023-08-07T09:04:34;20.49;50.04
71175;DHT22;58876;51.994;4.472;2023-08-07T09:07:01;20.85;50.29
71175;DHT22;58876;51.994;4.472;2023-08-07T09:09:27;20.64;51.82
71175;DHT22;58876;51.994;4.472;2023-08-07T09:11:55;19.65;53.48
71175;DHT22;58876;51.994;4.472;2023-08-07T09:14:26;19.25;54.64
71175;DHT22;58876;51.994;4.472;2023-08-07T09:16:54;19.18;55.64
71175;DHT22;58876;51.994;4.472;2023-08-07T09:19:19;18.92;55.36
71175;DHT22;58876;51.994;4.472;2023-08-07T09:21:46;19.65;53.14
71175;DHT22;58876;51.994;4.472;2023-08-07T09:24:11;20.03;51.47
71175;DHT22;58876;51.994;4.472;2023-08-07T09:26:39;20.72;50.23
71175;DHT22;58876;51.994;4.472;2023-08-07T09:29:07;20.85;49.96
71175;DHT22;58876;51.994;4.472;2023-08-07T09:31:36;20.76;49.57
71175;DHT22;58876;51.994;4.472;2023-08-07T09:34:03;20.89;48.35
71175;DHT22;58876;51.994;4.472;2023-08-07T09:36:34;20.47;49.87
71175;DHT22;58876;51.994;4.472;2023-08-07T09:39:03;20.27;50.49
71175;DHT22;58876;51.994;4.472;2023-08-07T09:41:31;20.20;50.84
71175;DHT22;58876;51.994;4.472;2023-08-07T09:43:57;20.31;50.34
71175;DHT22;58876;51.994;4.472;2023-08-07T09:46:25;20.18;49.76
71175;DHT22;58876;51.994;4.472;2023-08-07T09:48:51;19.91;46.93
71175;DHT22;58876;51.994;4.472;2023-08-07T09:51:17;20.00;49.24
71175;DHT22;58876;51.994;4.472;2023-08-07T09:53:43;19.87;49.33
71175;DHT22;58876;51.994;4.472;2023-08-07T09:56:08;19.74;50.87
71175;DHT22;58876;51.994;4.472;2023-08-07T09:58:34;19.73;50.19
71175;DHT22;58876;51.994;4.472;2023-08-07T10:01:03;20.08;51.08
71175;DHT22;58876;51.994;4.472;2023-08-07T10:03:30;20.45;50.08
71175;DHT22;58876;51.994;4.472;2023-08-07T10:05:57;20.24;49.68
71175;DHT22;58876;51.994;4.472;2023-08-07T10:08:24;20.21;49.45
71175;DHT22;58876;51.994;4.472;2023-08-07T10:10:50;19.86;49.77
71175;DHT22;58876;51.994;4.472;2023-08-07T10:13:15;19.32;52.74
71175;DHT22;58876;51.994;4.472;2023-08-07T10:15:42;19.33;52.22
71175;DHT22;58876;51.994;4.472;2023-08-07T10:18:09;19.49;52.27
71175;DHT22;58876;51.994;4.472;2023-08-07T10:20:36;20.10;49.83
71175;DHT22;58876;51.994;4.472;2023-08-07T10:23:09;19.84;49.17
71175;DHT22;58876;51.994;4.472;2023-08-07T10:25:41;20.01;48.72
71175;DHT22;58876;51.994;4.472;2023-08-07T10:28:12;20.03;50.71
71175;DHT22;58876;51.994;4.472;2023-08-07T10:30:41;20.17;52.47
71175;DHT22;58876;51.994;4.472;2023-08-07T10:33:10;19.84;50.24
71175;DHT22;58876;51.994;4.472;2023-08-07T10:35:36;19.96;49.67
71175;DHT22;58876;51.994;4.472;2023-08-07T10:38:09;19.88;48.46
71175;DHT22;58876;51.994;4.472;2023-08-07T10:43:29;19.97;50.51
71175;DHT22;58876;51.994;4.472;2023-08-07T10:46:14;20.24;50.52
71175;DHT22;58876;51.994;4.472;2023-08-07T10:51:07;19.88;50.84
71175;DHT22;58876;51.994;4.472;2023-08-07T10:53:40;19.57;53.19
71175;DHT22;58876;51.994;4.472;2023-08-07T10:56:15;19.67;53.33
71175;DHT22;58876;51.994;4.472;2023-08-07T10:58:41;19.77;52.82
71175;DHT22;58876;51.994;4.472;2023-08-07T11:01:16;19.93;50.13
71175;DHT22;58876;51.994;4.472;2023-08-07T11:03:47;19.90;49.75
71175;DHT22;58876;51.994;4.472;2023-08-07T11:06:13;19.87;48.55
71175;DHT22;58876;51.994;4.472;2023-08-07T11:08:40;19.91;49.42
71175;DHT22;58876;51.994;4.472;2023-08-07T11:11:06;19.88;47.93
71175;DHT22;58876;51.994;4.472;2023-08-07T11:13:33;19.77;47.37
71175;DHT22;58876;51.994;4.472;2023-08-07T11:16:00;19.83;47.53
71175;DHT22;58876;51.994;4.472;2023-08-07T11:18:25;20.14;49.90
71175;DHT22;58876;51.994;4.472;2023-08-07T11:20:54;20.27;49.39
71175;DHT22;58876;51.994;4.472;2023-08-07T11:23:25;20.52;50.50
71175;DHT22;58876;51.994;4.472;2023-08-07T11:25:54;20.75;51.29
71175;DHT22;58876;51.994;4.472;2023-08-07T11:28:21;20.62;50.89
71175;DHT22;58876;51.994;4.472;2023-08-07T11:30:52;20.28;52.39
71175;DHT22;58876;51.994;4.472;2023-08-07T11:33:19;20.21;51.78
71175;DHT22;58876;51.994;4.472;2023-08-07T11:35:48;20.01;52.65
71175;DHT22;58876;51.994;4.472;2023-08-07T11:38:29;20.28;52.72
71175;DHT22;58876;51.994;4.472;2023-08-07T11:41:01;20.71;53.08
71175;DHT22;58876;51.994;4.472;2023-08-07T11:43:29;20.38;53.19
71175;DHT22;58876;51.994;4.472;2023-08-07T11:45:56;20.20;54.27
71175;DHT22;58876;51.994;4.472;2023-08-07T11:48:27;20.00;55.78
71175;DHT22;58876;51.994;4.472;2023-08-07T11:50:54;20.07;54.11
71175;DHT22;58876;51.994;4.472;2023-08-07T11:53:21;20.58;53.32
71175;DHT22;58876;51.994;4.472;2023-08-07T11:56:05;20.89;51.98
71175;DHT22;58876;51.994;4.472;2023-08-07T11:58:45;21.22;52.52
71175;DHT22;58876;51.994;4.472;2023-08-07T12:01:19;21.04;50.03
71175;DHT22;58876;51.994;4.472;2023-08-07T12:03:56;21.10;49.85
71175;DHT22;58876;51.994;4.472;2023-08-07T12:06:25;20.82;51.23
71175;DHT22;58876;51.994;4.472;2023-08-07T12:08:55;20.38;52.73
71175;DHT22;58876;51.994;4.472;2023-08-07T12:11:22;20.21;54.42
71175;DHT22;58876;51.994;4.472;2023-08-07T12:13:48;20.32;54.67
71175;DHT22;58876;51.994;4.472;2023-08-07T12:16:15;19.69;54.31
71175;DHT22;58876;51.994;4.472;2023-08-07T12:18:49;19.52;55.92
71175;DHT22;58876;51.994;4.472;2023-08-07T12:21:25;19.45;56.54
71175;DHT22;58876;51.994;4.472;2023-08-07T12:23:54;19.15;56.87
71175;DHT22;58876;51.994;4.472;2023-08-07T12:26:20;19.50;57.10
71175;DHT22;58876;51.994;4.472;2023-08-07T12:28:45;19.81;56.96
71175;DHT22;58876;51.994;4.472;2023-08-07T12:31:11;19.84;57.26
71175;DHT22;58876;51.994;4.472;2023-08-07T12:33:36;19.90;56.34
71175;DHT22;58876;51.994;4.472;2023-08-07T12:36:02;19.50;57.75
71175;DHT22;58876;51.994;4.472;2023-08-07T12:38:29;19.29;59.18
71175;DHT22;58876;51.994;4.472;2023-08-07T12:40:54;19.25;59.35
71175;DHT22;58876;51.994;4.472;2023-08-07T12:43:20;19.52;58.06
71175;DHT22;58876;51.994;4.472;2023-08-07T12:45:46;19.94;57.09
71175;DHT22;58876;51.994;4.472;2023-08-07T12:48:12;19.76;58.00
71175;DHT22;58876;51.994;4.472;2023-08-07T12:50:39;19.52;60.74
71175;DHT22;58876;51.994;4.472;2023-08-07T12:53:04;19.30;61.53
71175;DHT22;58876;51.994;4.472;2023-08-07T12:55:30;19.11;64.52
71175;DHT22;58876;51.994;4.472;2023-08-07T12:57:59;18.53;70.03
71175;DHT22;58876;51.994;4.472;2023-08-07T13:00:24;17.93;72.96
71175;DHT22;58876;51.994;4.472;2023-08-07T13:02:51;17.52;74.49
71175;DHT22;58876;51.994;4.472;2023-08-07T13:08:32;16.87;76.95
71175;DHT22;58876;51.994;4.472;2023-08-07T13:11:02;17.14;76.86
71175;DHT22;58876;51.994;4.472;2023-08-07T13:13:28;17.23;75.29
71175;DHT22;58876;51.994;4.472;2023-08-07T13:15:55;17.40;76.42
71175;DHT22;58876;51.994;4.472;2023-08-07T13:18:21;17.81;75.96
71175;DHT22;58876;51.994;4.472;2023-08-07T13:20:47;18.09;74.66
71175;DHT22;58876;51.994;4.472;2023-08-07T13:23:13;18.34;71.20
71175;DHT22;58876;51.994;4.472;2023-08-07T13:25:40;18.87;69.80
71175;DHT22;58876;51.994;4.472;2023-08-07T13:28:06;19.26;67.20
71175;DHT22;58876;51.994;4.472;2023-08-07T13:30:35;19.46;66.85
71175;DHT22;58876;51.994;4.472;2023-08-07T13:33:01;19.57;65.49
71175;DHT22;58876;51.994;4.472;2023-08-07T13:35:27;19.81;66.57
71175;DHT22;58876;51.994;4.472;2023-08-07T13:37:52;19.79;63.11
71175;DHT22;58876;51.994;4.472;2023-08-07T13:40:18;19.79;63.75
71175;DHT22;58876;51.994;4.472;2023-08-07T13:42:45;20.10;61.54
71175;DHT22;58876;51.994;4.472;2023-08-07T13:45:12;20.25;60.96
71175;DHT22;58876;51.994;4.472;2023-08-07T13:47:41;20.10;61.38
71175;DHT22;58876;51.994;4.472;2023-08-07T13:50:07;20.22;60.38
71175;DHT22;58876;51.994;4.472;2023-08-07T13:52:33;20.21;60.03
71175;DHT22;58876;51.994;4.472;2023-08-07T13:54:59;20.24;59.14
71175;DHT22;58876;51.994;4.472;2023-08-07T13:57:25;20.35;58.23
71175;DHT22;58876;51.994;4.472;2023-08-07T13:59:50;20.62;58.11
71175;DHT22;58876;51.994;4.472;2023-08-07T14:02:16;20.01;57.78
71175;DHT22;58876;51.994;4.472;2023-08-07T14:04:41;20.10;60.49
71175;DHT22;58876;51.994;4.472;2023-08-07T14:07:11;20.41;58.57
71175;DHT22;58876;51.994;4.472;2023-08-07T14:09:36;20.69;60.24
71175;DHT22;58876;51.994;4.472;2023-08-07T14:12:05;19.97;59.59
71175;DHT22;58876;51.994;4.472;2023-08-07T14:14:31;20.17;59.64
71175;DHT22;58876;51.994;4.472;2023-08-07T14:16:56;20.83;56.77
71175;DHT22;58876;51.994;4.472;2023-08-07T14:19:25;20.61;56.67
71175;DHT22;58876;51.994;4.472;2023-08-07T14:21:51;20.44;56.40
71175;DHT22;58876;51.994;4.472;2023-08-07T14:24:16;20.51;56.47
71175;DHT22;58876;51.994;4.472;2023-08-07T14:26:42;20.66;56.43
71175;DHT22;58876;51.994;4.472;2023-08-07T14:29:08;20.71;56.82
71175;DHT22;58876;51.994;4.472;2023-08-07T14:31:34;20.85;56.74
71175;DHT22;58876;51.994;4.472;2023-08-07T14:34:00;20.38;56.46
71175;DHT22;58876;51.994;4.472;2023-08-07T14:36:25;20.61;56.56
71175;DHT22;58876;51.994;4.472;2023-08-07T14:38:51;20.49;57.84
71175;DHT22;58876;51.994;4.472;2023-08-07T14:41:17;20.38;57.17
71175;DHT22;58876;51.994;4.472;2023-08-07T14:43:44;20.96;56.31
71175;DHT22;58876;51.994;4.472;2023-08-07T14:46:11;21.07;57.42
71175;DHT22;58876;51.994;4.472;2023-08-07T14:48:36;21.00;55.45
71175;DHT22;58876;51.994;4.472;2023-08-07T14:51:02;21.31;56.54
71175;DHT22;58876;51.994;4.472;2023-08-07T14:53:28;21.57;55.45
71175;DHT22;58876;51.994;4.472;2023-08-07T14:55:53;21.44;55.42
71175;DHT22;58876;51.994;4.472;2023-08-07T14:58:19;21.28;56.15
71175;DHT22;58876;51.994;4.472;2023-08-07T15:00:45;21.17;56.07
71175;DHT22;58876;51.994;4.472;2023-08-07T15:03:11;20.66;57.80
71175;DHT22;58876;51.994;4.472;2023-08-07T15:05:36;20.80;57.73
71175;DHT22;58876;51.994;4.472;2023-08-07T15:08:02;20.92;57.32
71175;DHT22;58876;51.994;4.472;2023-08-07T15:10:29;21.02;56.61
71175;DHT22;58876;51.994;4.472;2023-08-07T15:12:54;20.82;55.75
71175;DHT22;58876;51.994;4.472;2023-08-07T15:15:21;20.58;55.29
71175;DHT22;58876;51.994;4.472;2023-08-07T15:17:47;20.37;54.59
71175;DHT22;58876;51.994;4.472;2023-08-07T15:20:12;19.97;56.95
71175;DHT22;58876;51.994;4.472;2023-08-07T15:22:38;20.31;55.38
71175;DHT22;58876;51.994;4.472;2023-08-07T15:25:04;20.11;56.83
71175;DHT22;58876;51.994;4.472;2023-08-07T15:27:33;20.03;57.46
71175;DHT22;58876;51.994;4.472;2023-08-07T15:29:58;19.77;57.60
71175;DHT22;58876;51.994;4.472;2023-08-07T15:32:24;19.45;58.32
71175;DHT22;58876;51.994;4.472;2023-08-07T15:34:49;19.36;60.36
71175;DHT22;58876;51.994;4.472;2023-08-07T15:37:15;19.50;60.25
71175;DHT22;58876;51.994;4.472;2023-08-07T15:39:40;19.62;60.08
71175;DHT22;58876;51.994;4.472;2023-08-07T15:42:06;19.84;61.32
71175;DHT22;58876;51.994;4.472;2023-08-07T15:44:32;19.79;60.26
71175;DHT22;58876;51.994;4.472;2023-08-07T15:46:57;19.80;59.98